[Jeden Freitag | 18:00z - 21:00z| EDDF] Frankfurt Friday

Zu Eventkalender hinzugefügt: 53 Daten

RG Frankfurt

RG Frankfurt - Leitung
Wie jeden Freitag ist Frankfurt wieder bereit für eure Flüge! Egal ob ihr Cargo oder Passagiere fliegt, wir bringen euch sicher über den größten Flughafen Deutschlands. Von 20:00lcl bis 23:00lcl geben wir unser Bestes für euch.

As every Friday, Frankfurt is ready for your flights! It doesn’t matter whether you are flying passengers or cargo, we will make sure you are safely travelling from or to the biggest airport in the whole of Germany. From 20:00lcl to 23:00lcl (18:00z to 21:00z in the summer, 19:00z to 22:00z in the winter) we are doing our best for you.


Charts (please consider especially the vAIP) https://vatsim-germany.org/pilots/aerodromes/EDDF
 

Matan Budimir

1375048
RG Frankfurt - Event
Heute ist wieder Frankfurt Friday!

METAR - EDDF 111050Z 17010KT 140V210 9999 FEW012 SCT016 15/11 Q1017 NOSIG
TAF - EDDF 110732Z 1107/1212 20006KT 9999 BKN014 BECMG 1107/1110 21012KT BKN020 PROB30 TEMPO 1111/1117 22015G25KT BECMG 1112/1115 SCT030 BECMG 1118/1120 19007KT BECMG 1210/1212 22012KT
 
Zuletzt bearbeitet:
Oben